Time;durP1;ratioP1;P1;durP2;ratioP2;P2;SDS_P1;SDS_P2;PMS_P1;PMS_P2;Temp;Humidity;BMP_temperature;BMP_pressure;BME280_temperature;BME280_humidity;BME280_pressure;Samples;Min_cycle;Max_cycle;Signal;HPM_P1;HPM_P2
2023/07/05 00:15:14;;;;;;;;;;;23.30;63.00;;;23.53;41.27;98207.94;4962753;28;114028;-82
2023/07/05 00:17:40;;;;;;;;;;;23.30;63.10;;;23.57;41.50;98222.81;4984664;28;124055;-84
2023/07/05 00:20:10;;;;;;;;;;;23.30;63.30;;;23.57;41.42;98220.00;4987035;28;123842;-82
2023/07/05 00:22:37;;;;;;;;;;;23.30;63.40;;;23.56;41.40;98212.75;4981876;28;114738;-82
2023/07/05 00:25:04;;;;;;;;;;;23.30;63.40;;;23.57;41.59;98215.16;4984433;28;113742;-83
2023/07/05 00:27:30;;;;;;;;;;;23.30;63.60;;;23.59;41.55;98217.59;4986286;28;124391;-83
2023/07/05 00:29:56;;;;;;;;;;;23.30;63.70;;;23.57;41.54;98215.16;4984258;28;123839;-83
2023/07/05 00:32:23;;;;;;;;;;;23.30;63.80;;;23.59;41.67;98211.94;4971738;28;113949;-83
2023/07/05 00:34:49;;;;;;;;;;;23.30;64.00;;;23.55;41.55;98211.16;4987966;28;112434;-83
2023/07/05 00:37:15;;;;;;;;;;;23.30;64.00;;;23.53;41.78;98205.13;4978236;28;124669;-83
2023/07/05 00:39:42;;;;;;;;;;;23.30;64.00;;;23.49;41.76;98207.19;4980633;28;124339;-83
2023/07/05 00:42:08;;;;;;;;;;;23.20;64.10;;;23.45;41.90;98212.03;4985391;28;114186;-83
2023/07/05 00:44:34;;;;;;;;;;;23.20;64.20;;;23.38;42.21;98208.03;4991329;28;114003;-83
2023/07/05 00:47:05;;;;;;;;;;;23.20;64.60;;;23.31;42.57;98196.81;4990734;28;124638;-83
2023/07/05 00:49:33;;;;;;;;;;;23.10;64.80;;;23.23;42.52;98200.09;4990828;28;122943;-83
2023/07/05 00:52:07;;;;;;;;;;;23.00;65.10;;;23.18;42.79;98194.88;4991384;28;114524;-83
2023/07/05 00:54:46;;;;;;;;;;;23.00;65.50;;;23.14;43.01;98189.28;4989162;28;115587;-83
2023/07/05 00:57:17;;;;;;;;;;;22.90;65.50;;;23.10;43.03;98182.84;4991171;28;123477;-83
2023/07/05 00:59:50;;;;;;;;;;;22.90;65.80;;;23.07;43.23;98180.84;4989331;28;122812;-84
2023/07/05 01:02:17;;;;;;;;;;;22.80;66.10;;;23.03;43.11;98172.44;4988718;28;114422;-83
2023/07/05 01:04:44;;;;;;;;;;;22.80;66.10;;;23.01;43.17;98162.78;4989713;28;113377;-83
2023/07/05 01:07:12;;;;;;;;;;;22.80;66.20;;;23.00;43.39;98163.97;4989040;28;124233;-83
2023/07/05 01:09:39;;;;;;;;;;;22.70;66.30;;;22.96;43.43;98183.72;4981299;28;124031;-83
2023/07/05 01:12:29;;;;;;;;;;;22.70;66.50;;;22.92;43.71;98175.28;4989878;28;113953;-84
2023/07/05 01:15:01;;;;;;;;;;;22.70;66.90;;;22.84;43.73;98184.97;4970315;28;113953;-84
2023/07/05 01:17:42;;;;;;;;;;;22.60;67.00;;;22.79;43.77;98182.59;4984657;28;123997;-83
2023/07/05 01:20:09;;;;;;;;;;;22.60;67.20;;;22.74;44.15;98185.84;4982980;28;123481;-83
2023/07/05 01:22:35;;;;;;;;;;;22.50;67.80;;;22.69;44.42;98178.59;4991752;28;112964;-83
2023/07/05 01:25:49;;;;;;;;;;;22.40;68.10;;;22.66;44.43;98173.00;4988949;28;113488;-83
2023/07/05 01:28:32;;;;;;;;;;;22.40;68.30;;;22.63;44.96;98174.63;4990736;28;124196;-83
2023/07/05 01:31:36;;;;;;;;;;;22.40;69.00;;;22.61;45.00;98162.16;4988901;28;124478;-84
2023/07/05 01:34:37;;;;;;;;;;;22.40;69.20;;;22.60;45.18;98157.75;4983148;28;113371;-83
2023/07/05 01:37:10;;;;;;;;;;;22.30;69.70;;;22.57;45.35;98162.19;4991346;28;113717;-83
2023/07/05 01:39:36;;;;;;;;;;;22.30;69.80;;;22.59;45.71;98173.81;4987686;28;124266;-83
2023/07/05 01:42:03;;;;;;;;;;;22.30;70.50;;;22.56;45.80;98168.19;4989534;28;123919;-84
2023/07/05 01:44:32;;;;;;;;;;;22.30;70.60;;;22.55;45.85;98166.59;4987291;28;115272;-84
2023/07/05 01:47:06;;;;;;;;;;;22.30;70.70;;;22.52;46.11;98151.34;4992618;28;114090;-84
2023/07/05 01:49:59;;;;;;;;;;;22.30;71.10;;;22.50;45.89;98151.72;4984956;28;124822;-84
2023/07/05 01:52:36;;;;;;;;;;;22.30;71.20;;;22.49;45.90;98147.31;4990867;28;124719;-84
2023/07/05 01:55:05;;;;;;;;;;;22.30;71.30;;;22.49;46.22;98169.84;4971017;28;114534;-84
2023/07/05 01:57:47;;;;;;;;;;;22.20;71.70;;;22.47;45.98;98180.69;4988558;28;113095;-84
2023/07/05 02:00:15;;;;;;;;;;;22.20;71.80;;;22.44;46.50;98189.97;4987543;28;123499;-85
2023/07/05 02:02:50;;;;;;;;;;;22.20;72.30;;;22.41;46.10;98178.72;4981805;28;124705;-84
2023/07/05 02:05:16;;;;;;;;;;;22.20;72.20;;;22.37;46.05;98189.97;4982372;28;113411;-85
2023/07/05 02:07:44;;;;;;;;;;;22.10;72.20;;;22.33;46.46;98200.47;4988505;28;113479;-85
2023/07/05 02:10:11;;;;;;;;;;;22.10;72.50;;;22.27;46.63;98193.63;4969633;28;123800;-84
2023/07/05 02:12:39;;;;;;;;;;;22.00;72.90;;;22.21;46.94;98206.50;4989561;28;124217;-85
2023/07/05 02:15:09;;;;;;;;;;;21.90;73.40;;;22.14;47.14;98196.06;4974410;28;113710;-85
2023/07/05 02:17:37;;;;;;;;;;;21.90;73.60;;;22.09;47.21;98215.34;4977927;28;113133;-86
2023/07/05 02:20:04;;;;;;;;;;;21.80;73.80;;;22.04;47.21;98217.34;4990822;28;123940;-85
2023/07/05 02:22:31;;;;;;;;;;;21.70;74.10;;;21.99;47.25;98209.31;4973634;28;122815;-85
2023/07/05 02:24:57;;;;;;;;;;;21.70;74.20;;;21.98;47.32;98209.75;4984400;28;115562;-86
2023/07/05 02:27:23;;;;;;;;;;;21.70;74.70;;;21.96;47.22;98227.00;4983144;28;113481;-87
2023/07/05 02:29:52;;;;;;;;;;;21.70;74.80;;;21.94;47.31;98229.41;4984614;28;124307;-85
2023/07/05 02:32:20;;;;;;;;;;;21.70;74.70;;;21.94;47.38;98235.03;4984973;28;123813;-85
2023/07/05 02:34:49;;;;;;;;;;;21.60;74.90;;;21.96;47.23;98243.09;4985235;28;117874;-85
2023/07/05 02:37:18;;;;;;;;;;;21.60;75.10;;;21.95;48.24;98241.47;4988218;28;114648;-85
2023/07/05 02:39:44;;;;;;;;;;;21.70;76.50;;;21.93;48.99;98241.09;4989478;28;124147;-86
2023/07/05 02:42:10;;;;;;;;;;;21.60;78.50;;;21.87;49.28;98229.44;4991325;28;122852;-86
2023/07/05 02:44:37;;;;;;;;;;;21.60;78.60;;;21.81;50.23;98236.66;4985266;28;114414;-85
2023/07/05 02:47:03;;;;;;;;;;;21.50;79.60;;;21.76;50.47;98239.84;4976674;28;113788;-85
2023/07/05 02:49:32;;;;;;;;;;;21.50;80.30;;;21.72;50.39;98250.31;4990592;28;124103;-85
2023/07/05 02:51:58;;;;;;;;;;;21.50;81.00;;;21.67;50.56;98242.28;4987988;28;123778;-85
2023/07/05 02:54:24;;;;;;;;;;;21.40;81.40;;;21.61;50.73;98231.44;4990019;28;113256;-85
2023/07/05 02:56:53;;;;;;;;;;;21.40;81.80;;;21.58;51.29;98240.66;4988330;28;114379;-86
2023/07/05 02:59:21;;;;;;;;;;;21.30;82.70;;;21.54;51.62;98245.47;4985818;28;123233;-86
2023/07/05 03:01:47;;;;;;;;;;;21.30;83.70;;;21.49;52.13;98242.25;4979611;28;124194;-86
2023/07/05 03:04:14;;;;;;;;;;;21.30;84.30;;;21.44;52.60;98240.66;4987306;28;114357;-85
2023/07/05 03:06:40;;;;;;;;;;;21.30;85.10;;;21.41;52.54;98233.00;4988100;28;113549;-86
2023/07/05 03:09:08;;;;;;;;;;;21.20;85.70;;;21.38;52.81;98231.78;4988792;28;124184;-86
2023/07/05 03:11:36;;;;;;;;;;;21.20;85.90;;;21.40;52.57;98234.22;4989394;28;123922;-85
2023/07/05 03:14:02;;;;;;;;;;;21.20;86.30;;;21.37;52.98;98226.53;4970714;28;113573;-86
2023/07/05 03:16:34;;;;;;;;;;;21.20;87.00;;;21.36;53.26;98241.81;4990148;28;113407;-86
2023/07/05 03:19:02;;;;;;;;;;;21.10;87.30;;;21.33;52.92;98239.78;4990910;28;123848;-87
2023/07/05 03:21:28;;;;;;;;;;;21.10;87.50;;;21.32;53.60;98247.41;4988016;28;124287;-86
2023/07/05 03:23:59;;;;;;;;;;;21.10;88.00;;;21.30;53.78;98240.56;4988619;28;114980;-87
2023/07/05 03:26:26;;;;;;;;;;;21.10;88.50;;;21.30;53.44;98240.56;4986053;28;114928;-86
2023/07/05 03:28:52;;;;;;;;;;;19.70;87.30;;;21.30;53.82;98244.19;4987259;28;124809;-87
2023/07/05 03:31:18;;;;;;;;;;;21.10;88.90;;;21.31;54.21;98247.81;4989855;28;123435;-87
2023/07/05 03:33:45;;;;;;;;;;;21.10;89.70;;;21.31;53.96;98248.63;4984881;28;114386;-85
2023/07/05 03:36:12;;;;;;;;;;;21.10;89.90;;;21.33;53.72;98251.00;4984323;28;114248;-83
2023/07/05 03:38:38;;;;;;;;;;;21.00;89.90;;;21.36;53.79;98247.44;4975814;28;124307;-84
2023/07/05 03:41:06;;;;;;;;;;;21.00;90.00;;;21.39;53.60;98258.69;4987580;28;124006;-84
2023/07/05 03:43:35;;;;;;;;;;;21.10;89.90;;;21.43;53.39;98257.91;4989036;28;107190;-84
2023/07/05 03:46:04;;;;;;;;;;;21.10;89.70;;;21.46;53.43;98254.28;4992795;28;114176;-85
2023/07/05 03:48:32;;;;;;;;;;;21.10;89.70;;;21.48;53.02;98258.31;4984722;28;123911;-84
2023/07/05 03:50:59;;;;;;;;;;;21.10;89.40;;;21.51;52.55;98262.34;4972151;28;124621;-85
2023/07/05 03:53:25;;;;;;;;;;;21.20;89.30;;;21.50;52.33;98250.28;4986531;28;114224;-84
2023/07/05 03:55:52;;;;;;;;;;;21.10;88.80;;;21.51;52.46;98251.88;4986557;28;113763;-85
2023/07/05 03:58:20;;;;;;;;;;;21.10;88.90;;;21.49;52.23;98253.50;5003386;28;124590;-85
2023/07/05 04:00:47;;;;;;;;;;;21.20;88.90;;;21.49;52.69;98254.28;4962067;28;123448;-85
2023/07/05 04:03:13;;;;;;;;;;;21.20;88.90;;;21.48;52.69;98263.13;4983886;28;114376;-85
2023/07/05 04:05:39;;;;;;;;;;;21.10;89.20;;;21.46;52.70;98257.91;4991022;28;113545;-85
2023/07/05 04:08:06;;;;;;;;;;;21.20;89.30;;;21.46;52.74;98265.53;4987763;28;124232;-85
2023/07/05 04:10:32;;;;;;;;;;;21.10;89.20;;;21.45;52.90;98275.19;4986198;28;124329;-84
2023/07/05 04:12:58;;;;;;;;;;;21.10;89.40;;;21.45;52.97;98261.13;4989186;28;115078;-85
2023/07/05 04:15:27;;;;;;;;;;;21.10;89.60;;;21.44;53.26;98267.94;4986671;28;114614;-84
2023/07/05 04:17:53;;;;;;;;;;;21.10;90.00;;;21.40;53.31;98262.31;4989798;28;124188;-84
2023/07/05 04:20:19;;;;;;;;;;;21.10;90.10;;;21.38;53.24;98261.91;4987077;28;123920;-85
2023/07/05 04:22:45;;;;;;;;;;;21.10;90.20;;;21.35;53.41;98263.47;4987095;28;114430;-85
2023/07/05 04:25:12;;;;;;;;;;;21.10;90.20;;;21.34;53.58;98261.88;4987906;28;114117;-85
2023/07/05 04:27:38;;;;;;;;;;;21.00;90.30;;;21.34;53.53;98247.03;4975612;28;124086;-84
2023/07/05 04:30:05;;;;;;;;;;;21.00;90.30;;;21.33;53.64;98237.78;4984623;28;123846;-85
2023/07/05 04:32:31;;;;;;;;;;;21.00;90.40;;;21.33;54.10;98249.03;4980580;28;114090;-84
2023/07/05 04:35:00;;;;;;;;;;;21.00;90.60;;;21.33;54.05;98248.19;4987431;28;114065;-84
2023/07/05 04:37:26;;;;;;;;;;;21.00;90.70;;;21.33;54.16;98245.41;4986856;28;124189;-84
2023/07/05 04:39:52;;;;;;;;;;;21.00;90.80;;;21.32;54.57;98238.19;4971713;28;123192;-85
2023/07/05 04:42:18;;;;;;;;;;;21.00;90.90;;;21.31;54.27;98242.19;4988352;28;114416;-84
2023/07/05 04:44:45;;;;;;;;;;;21.00;90.90;;;21.30;54.07;98238.56;4988574;28;113498;-85
2023/07/05 04:47:13;;;;;;;;;;;21.00;90.90;;;21.30;54.62;98246.19;4985604;28;123638;-84
2023/07/05 04:49:40;;;;;;;;;;;21.00;91.00;;;21.29;54.18;98241.78;4988292;28;123471;-82
2023/07/05 04:52:06;;;;;;;;;;;21.00;91.00;;;21.29;54.82;98244.59;4984027;28;114739;-84
2023/07/05 04:54:33;;;;;;;;;;;21.00;91.20;;;21.27;54.87;98250.59;4989230;28;112563;-84
2023/07/05 04:56:59;;;;;;;;;;;20.90;91.20;;;21.27;54.76;98242.16;4969213;28;123713;-83
2023/07/05 04:59:28;;;;;;;;;;;21.00;91.20;;;21.28;54.77;98237.34;4986646;28;123848;-84
2023/07/05 05:01:54;;;;;;;;;;;21.00;91.30;;;21.31;54.45;98233.78;4982378;28;115384;-84
2023/07/05 05:04:25;;;;;;;;;;;21.00;91.30;;;21.34;54.48;98233.78;4978429;28;114365;-85
2023/07/05 05:06:51;;;;;;;;;;;21.00;91.20;;;21.36;54.53;98217.31;4987020;28;124362;-84
2023/07/05 05:09:20;;;;;;;;;;;21.00;91.30;;;21.39;54.50;98215.75;4987856;28;123710;-84
2023/07/05 05:11:46;;;;;;;;;;;21.00;91.40;;;21.39;54.57;98221.38;4982444;28;116257;-84
2023/07/05 05:14:12;;;;;;;;;;;21.00;91.50;;;21.37;55.01;98201.25;4986698;28;113780;-85
2023/07/05 05:16:39;;;;;;;;;;;21.00;91.60;;;21.33;55.03;98206.06;4983789;28;124554;-83
2023/07/05 05:19:05;;;;;;;;;;;21.00;91.60;;;21.31;54.97;98208.47;4984942;28;124344;-85
2023/07/05 05:21:34;;;;;;;;;;;21.00;91.60;;;21.31;54.68;98205.66;4984878;28;114517;-85
2023/07/05 05:24:00;;;;;;;;;;;21.00;91.60;;;21.33;55.00;98211.66;4986266;28;112974;-84
2023/07/05 05:26:26;;;;;;;;;;;21.00;91.70;;;21.37;55.23;98212.50;4984144;28;126477;-83
2023/07/05 05:28:55;;;;;;;;;;;21.00;91.70;;;21.40;55.10;98208.91;4976604;28;123841;-83
2023/07/05 05:31:21;;;;;;;;;;;21.10;91.70;;;21.42;54.82;98212.13;4987101;28;114369;-83
2023/07/05 05:33:47;;;;;;;;;;;19.40;91.00;;;21.48;55.07;98224.59;4967640;28;112749;-84
2023/07/05 05:36:14;;;;;;;;;;;21.10;91.70;;;21.53;54.84;98221.38;4989852;28;124335;-84
2023/07/05 05:38:40;;;;;;;;;;;21.20;91.70;;;21.56;54.57;98231.03;4987506;28;124086;-84
2023/07/05 05:41:09;;;;;;;;;;;21.20;91.70;;;21.58;55.13;98225.81;4980451;28;114238;-84
2023/07/05 05:43:38;;;;;;;;;;;21.20;91.70;;;21.58;54.63;98234.25;4981304;28;113889;-84
2023/07/05 05:46:04;;;;;;;;;;;21.20;91.70;;;21.60;54.90;98241.06;4977767;28;124818;-83
2023/07/05 05:48:33;;;;;;;;;;;21.30;91.70;;;21.59;54.47;98231.00;4978525;28;125196;-84
2023/07/05 05:50:59;;;;;;;;;;;21.30;91.70;;;21.64;54.79;98241.06;4977837;28;117002;-84
2023/07/05 05:53:25;;;;;;;;;;;21.30;91.70;;;21.69;54.44;98237.06;4990542;28;113670;-83
2023/07/05 05:55:54;;;;;;;;;;;21.30;91.80;;;21.78;54.82;98248.69;4989423;28;124697;-84
2023/07/05 05:58:23;;;;;;;;;;;21.30;91.90;;;21.83;54.48;98239.88;4967944;28;122963;-84
2023/07/05 06:00:51;;;;;;;;;;;21.30;91.80;;;21.89;54.66;98248.72;4969917;28;113999;-85
2023/07/05 06:03:17;;;;;;;;;;;21.40;91.80;;;21.98;54.16;98240.69;4974574;28;113778;-85
2023/07/05 06:05:43;;;;;;;;;;;21.40;91.70;;;22.06;53.88;98239.47;4969776;28;124041;-84
2023/07/05 06:08:10;;;;;;;;;;;21.50;91.70;;;22.10;53.87;98242.28;4983321;28;124963;-85
2023/07/05 06:10:36;;;;;;;;;;;21.60;91.70;;;22.14;53.43;98234.63;4976448;28;114236;-85
2023/07/05 06:13:02;;;;;;;;;;;21.60;91.60;;;22.19;53.46;98245.50;4988518;28;112698;-85
2023/07/05 06:15:29;;;;;;;;;;;21.70;91.50;;;22.24;53.24;98231.03;4988330;28;125291;-85
2023/07/05 06:17:55;;;;;;;;;;;21.80;91.40;;;22.30;53.08;98246.31;4981214;28;123586;-83
2023/07/05 06:20:23;;;;;;;;;;;21.80;91.30;;;22.34;53.04;98255.53;4983301;28;114382;-85
2023/07/05 06:22:49;;;;;;;;;;;21.80;91.20;;;22.38;53.07;98270.41;4987566;28;114430;-82
2023/07/05 06:25:15;;;;;;;;;;;21.90;91.20;;;22.41;53.04;98272.41;4979898;28;124146;-83
2023/07/05 06:27:44;;;;;;;;;;;21.90;91.10;;;22.43;52.67;98270.00;4982088;28;123999;-83
2023/07/05 06:30:11;;;;;;;;;;;21.90;91.10;;;22.45;52.77;98270.38;4989025;28;113502;-82
2023/07/05 06:32:37;;;;;;;;;;;21.90;91.10;;;22.46;52.57;98288.91;4989548;28;113684;-82
2023/07/05 06:35:04;;;;;;;;;;;22.00;91.00;;;22.50;52.74;98288.88;4987628;28;124238;-82
2023/07/05 06:37:30;;;;;;;;;;;22.00;91.00;;;22.50;52.60;98300.16;4989762;28;123488;-83
2023/07/05 06:39:56;;;;;;;;;;;22.00;90.90;;;22.49;53.29;98310.63;4987757;28;115622;-84
2023/07/05 06:42:23;;;;;;;;;;;22.10;91.30;;;22.46;53.93;98319.88;4985592;28;113907;-83
2023/07/05 06:44:49;;;;;;;;;;;22.10;91.80;;;22.44;54.37;98313.84;4988256;28;124770;-82
2023/07/05 06:47:15;;;;;;;;;;;22.10;92.00;;;22.38;55.08;98312.66;4980756;28;123817;-80
2023/07/05 06:49:41;;;;;;;;;;;22.00;92.30;;;22.36;55.16;98322.69;4988710;28;114247;-81
2023/07/05 06:52:08;;;;;;;;;;;22.00;92.40;;;22.34;56.01;98339.19;4983956;28;113767;-83
2023/07/05 06:54:34;;;;;;;;;;;22.00;92.70;;;22.24;56.04;98337.97;4985979;28;124158;-82
2023/07/05 06:57:01;;;;;;;;;;;22.00;92.80;;;22.14;56.54;98353.63;4981688;28;124114;-83
2023/07/05 06:59:27;;;;;;;;;;;21.90;93.00;;;22.00;57.58;98362.03;4987151;28;114592;-82
2023/07/05 07:01:55;;;;;;;;;;;21.80;93.50;;;21.87;58.22;98352.38;4983986;28;113432;-82
2023/07/05 07:04:22;;;;;;;;;;;21.70;93.60;;;21.80;58.23;98353.16;4983857;28;124651;-86
2023/07/05 07:06:48;;;;;;;;;;;21.70;93.80;;;21.73;58.58;98353.16;4981549;28;124215;-83
2023/07/05 07:09:14;;;;;;;;;;;21.60;94.00;;;21.69;59.03;98352.34;4989042;28;114038;-83
2023/07/05 07:11:41;;;;;;;;;;;21.60;94.30;;;21.64;59.33;98361.16;4983980;28;114115;-83
2023/07/05 07:14:08;;;;;;;;;;;21.50;94.50;;;21.59;59.78;98365.97;4977391;28;123603;-82
2023/07/05 07:16:34;;;;;;;;;;;21.50;95.00;;;21.58;60.22;98381.22;4966175;28;123673;-83
2023/07/05 07:19:00;;;;;;;;;;;21.40;94.90;;;21.57;60.18;98362.75;4987469;28;113355;-82
2023/07/05 07:21:26;;;;;;;;;;;21.40;95.10;;;21.58;60.69;98364.38;4988386;28;113578;-82
2023/07/05 07:23:53;;;;;;;;;;;21.40;95.40;;;21.53;60.73;98359.13;4969344;28;124722;-81
2023/07/05 07:26:24;;;;;;;;;;;21.40;95.50;;;21.51;61.00;98381.19;4968435;28;123554;-82
2023/07/05 07:28:53;;;;;;;;;;;21.30;95.80;;;21.50;61.04;98376.78;4983747;28;114695;-84
2023/07/05 07:31:27;;;;;;;;;;;21.30;95.90;;;21.52;61.30;98382.00;4978861;28;114618;-83
2023/07/05 07:33:54;;;;;;;;;;;21.30;96.00;;;21.56;61.06;98380.81;4979293;28;124338;-82
2023/07/05 07:36:23;;;;;;;;;;;21.30;96.10;;;21.65;61.25;98385.25;4985287;28;123833;-82
2023/07/05 07:38:50;;;;;;;;;;;21.30;96.20;;;21.72;60.85;98386.09;4971726;28;113989;-82
2023/07/05 07:41:17;;;;;;;;;;;21.40;96.30;;;21.76;60.22;98386.09;4982541;28;114970;-83
2023/07/05 07:43:46;;;;;;;;;;;21.40;96.10;;;21.79;59.79;98386.13;4983241;28;124779;-83
2023/07/05 07:46:17;;;;;;;;;;;21.40;95.90;;;21.84;59.64;98390.53;4977397;28;123285;-81
2023/07/05 07:48:49;;;;;;;;;;;21.40;95.80;;;21.87;59.61;98389.75;4956802;28;113208;-81
2023/07/05 07:51:16;;;;;;;;;;;21.50;95.80;;;21.86;59.39;98399.38;4985447;28;113809;-82
2023/07/05 07:53:42;;;;;;;;;;;21.50;95.80;;;21.87;59.38;98397.38;4971749;28;123187;-81
2023/07/05 07:56:13;;;;;;;;;;;21.50;95.60;;;21.85;59.00;98400.59;4986888;28;123182;-83
2023/07/05 07:58:40;;;;;;;;;;;21.50;95.50;;;21.83;58.59;98386.13;4985205;28;114464;-82
2023/07/05 08:01:18;;;;;;;;;;;21.50;95.30;;;21.77;58.84;98405.38;4988541;28;113737;-84
2023/07/05 08:03:45;;;;;;;;;;;21.50;95.40;;;21.67;58.69;98408.16;4984726;28;123917;-83
2023/07/05 08:06:11;;;;;;;;;;;21.40;95.20;;;21.54;59.33;98414.13;4984871;28;124578;-81
2023/07/05 08:08:39;;;;;;;;;;;21.30;95.30;;;21.49;59.26;98414.50;4985304;28;115034;-82
2023/07/05 08:11:08;;;;;;;;;;;21.30;95.30;;;21.43;59.21;98421.72;4986682;28;114036;-82
2023/07/05 08:13:36;;;;;;;;;;;21.20;95.20;;;21.38;59.19;98427.72;4963020;28;124176;-83
2023/07/05 08:16:05;;;;;;;;;;;21.20;95.20;;;21.31;59.32;98425.66;4965539;28;123911;-82
2023/07/05 08:18:33;;;;;;;;;;;21.10;95.20;;;21.25;59.20;98435.66;4969729;28;114421;-82
2023/07/05 08:21:00;;;;;;;;;;;21.10;95.30;;;21.24;59.36;98436.06;4971914;28;114492;-81
2023/07/05 08:23:26;;;;;;;;;;;21.00;95.30;;;21.22;59.25;98444.06;4983245;28;124482;-82
2023/07/05 08:25:55;;;;;;;;;;;21.00;95.20;;;21.21;58.81;98439.66;4978454;28;123688;-82
2023/07/05 08:28:23;;;;;;;;;;;21.00;95.10;;;21.15;59.47;98453.28;4987198;28;114712;-82
2023/07/05 08:30:57;;;;;;;;;;;20.90;95.40;;;21.10;59.37;98454.44;4972425;28;113730;-85
2023/07/05 08:33:27;;;;;;;;;;;20.90;95.30;;;21.04;59.34;98453.19;4982193;28;124646;-84
2023/07/05 08:36:09;;;;;;;;;;;20.90;95.30;;;21.00;59.61;98452.34;4967902;28;123575;-85
2023/07/05 08:38:46;;;;;;;;;;;20.80;95.20;;;21.00;59.39;98457.97;4984339;28;114377;-84
2023/07/05 08:41:44;;;;;;;;;;;20.80;95.20;;;20.90;59.50;98467.13;4983400;28;113965;-84
2023/07/05 08:44:16;;;;;;;;;;;20.80;95.20;;;20.87;59.61;98465.09;4987013;28;123181;-82
2023/07/05 08:46:45;;;;;;;;;;;20.70;95.20;;;20.86;59.27;98471.91;4982111;28;123933;-82
2023/07/05 08:49:26;;;;;;;;;;;20.70;95.20;;;20.89;59.44;98485.19;4969765;28;113220;-82
2023/07/05 08:51:53;;;;;;;;;;;20.70;95.10;;;20.91;58.84;98489.22;4975796;28;112721;-81
2023/07/05 08:54:20;;;;;;;;;;;20.70;95.10;;;20.95;58.91;98494.84;4985241;28;124295;-81
2023/07/05 08:56:49;;;;;;;;;;;20.70;95.00;;;21.00;58.89;98490.88;4984551;28;123946;-82
2023/07/05 08:59:40;;;;;;;;;;;20.70;95.00;;;21.07;58.81;98497.34;4968643;28;114104;-83
2023/07/05 09:02:07;;;;;;;;;;;20.80;95.00;;;21.14;58.40;98491.81;4954650;28;112796;-84
2023/07/05 09:04:34;;;;;;;;;;;20.80;94.90;;;21.17;58.15;98488.22;4982461;28;123713;-83
2023/07/05 09:07:11;;;;;;;;;;;20.80;94.80;;;21.21;57.85;98501.47;4982856;28;123955;-82
2023/07/05 09:09:51;;;;;;;;;;;20.80;94.80;;;21.25;57.92;98500.31;4983276;28;115849;-83
2023/07/05 09:12:46;;;;;;;;;;;20.90;94.70;;;21.27;57.41;98503.50;4986828;28;115033;-83
2023/07/05 09:15:23;;;;;;;;;;;20.90;94.50;;;21.28;57.15;98496.69;4997562;28;124078;-83
2023/07/05 09:17:55;;;;;;;;;;;20.90;94.30;;;21.30;56.80;98494.28;4967998;28;124054;-82
2023/07/05 09:20:25;;;;;;;;;;;20.90;94.10;;;21.35;56.60;98495.94;4987092;28;114429;-84
2023/07/05 09:22:51;;;;;;;;;;;21.00;94.10;;;21.39;56.55;98491.19;4991298;28;112643;-82
2023/07/05 09:25:21;;;;;;;;;;;21.00;94.10;;;21.48;56.19;98500.06;4990074;28;124192;-83
2023/07/05 09:27:51;;;;;;;;;;;21.00;94.00;;;21.58;55.57;98488.06;4990086;28;123485;-83
2023/07/05 09:30:24;;;;;;;;;;;21.10;93.80;;;21.69;55.26;98502.19;4988060;28;116062;-83
2023/07/05 09:33:16;;;;;;;;;;;21.20;93.70;;;21.75;54.48;98508.22;4984436;28;113928;-87
2023/07/05 09:35:44;;;;;;;;;;;21.20;93.00;;;21.78;54.44;98511.03;4985230;28;124100;-77
2023/07/05 09:38:23;;;;;;;;;;;21.30;92.80;;;21.83;52.91;98509.88;4984810;28;124093;-81
2023/07/05 09:40:57;;;;;;;;;;;21.30;92.40;;;21.87;52.04;98499.44;4986388;28;114663;-81
2023/07/05 09:43:29;;;;;;;;;;;21.30;91.50;;;21.90;50.59;98493.03;4972231;28;113487;-81
2023/07/05 09:45:56;;;;;;;;;;;21.40;90.60;;;21.95;51.06;98505.88;4986744;28;124937;-81
2023/07/05 09:48:22;;;;;;;;;;;21.40;90.60;;;22.01;50.39;98498.69;4980713;28;123951;-82
2023/07/05 09:50:50;;;;;;;;;;;21.40;90.50;;;22.08;48.99;98503.53;4986870;28;114543;-80
2023/07/05 09:53:55;;;;;;;;;;;21.50;89.10;;;22.08;49.06;98497.91;4989553;28;113822;-79
2023/07/05 09:56:29;;;;;;;;;;;21.60;88.70;;;22.17;49.02;98499.16;5004303;28;124327;-84
2023/07/05 09:59:21;;;;;;;;;;;21.70;88.50;;;22.25;48.67;98491.56;4990973;28;125921;-78
2023/07/05 10:01:50;;;;;;;;;;;21.70;88.00;;;22.33;47.55;98487.56;4989759;28;115415;-78
2023/07/05 10:04:17;;;;;;;;;;;21.80;86.20;;;22.40;47.31;98481.94;4983175;28;114496;-78
2023/07/05 10:06:47;;;;;;;;;;;21.80;85.80;;;22.49;47.30;98488.00;4982835;28;124036;-79
2023/07/05 10:09:15;;;;;;;;;;;21.90;85.70;;;22.56;46.69;98490.00;4984392;28;124615;-79
2023/07/05 10:11:44;;;;;;;;;;;22.00;84.90;;;22.60;45.33;98501.28;4987485;28;115926;-78
2023/07/05 10:14:16;;;;;;;;;;;22.10;83.00;;;22.56;45.38;98489.19;4986128;28;114110;-79
2023/07/05 10:16:51;;;;;;;;;;;22.10;82.40;;;22.59;44.74;98499.66;4987441;28;124017;-77
2023/07/05 10:19:27;;;;;;;;;;;22.10;81.50;;;22.59;44.95;98499.66;4977687;28;124088;-78
2023/07/05 10:22:06;;;;;;;;;;;22.20;81.10;;;22.62;43.65;98502.50;4985065;28;114382;-78
2023/07/05 10:24:38;;;;;;;;;;;22.20;79.20;;;22.62;43.37;98508.13;4988425;28;113091;-79
2023/07/05 10:27:21;;;;;;;;;;;22.20;78.90;;;22.63;43.09;98506.09;4988811;28;123996;-80
2023/07/05 10:29:55;;;;;;;;;;;22.20;78.20;;;22.66;42.58;98496.84;4972484;28;123105;-79
2023/07/05 10:32:22;;;;;;;;;;;22.20;77.60;;;22.70;41.90;98506.09;4985704;28;114385;-79
2023/07/05 10:34:50;;;;;;;;;;;22.30;76.40;;;22.77;41.05;98494.03;4989426;28;113407;-78
2023/07/05 10:37:29;;;;;;;;;;;22.30;74.30;;;22.86;40.56;98498.09;4977989;28;125320;-79
2023/07/05 10:40:09;;;;;;;;;;;22.40;73.50;;;22.92;39.79;98507.72;4989866;28;123313;-79
2023/07/05 10:42:46;;;;;;;;;;;22.40;72.20;;;22.97;37.64;98500.94;4985930;28;114636;-78
2023/07/05 10:45:16;;;;;;;;;;;22.50;67.90;;;23.01;36.24;98500.91;4984941;28;113975;-82
2023/07/05 10:47:47;;;;;;;;;;;22.50;65.40;;;23.05;35.62;98511.00;4983450;28;124710;-80
2023/07/05 10:50:14;;;;;;;;;;;22.60;63.40;;;23.11;35.27;98500.91;4974801;28;124628;-79
2023/07/05 10:52:52;;;;;;;;;;;22.60;62.10;;;23.19;34.38;98507.34;5001114;28;115614;-79
2023/07/05 10:55:23;;;;;;;;;;;22.70;60.70;;;23.27;35.19;98497.66;4986207;28;114376;-79
2023/07/05 10:57:53;;;;;;;;;;;22.80;61.60;;;23.34;35.31;98494.81;4981026;28;124179;-79
2023/07/05 11:00:39;;;;;;;;;;;22.90;61.80;;;23.44;35.11;98498.03;4981125;28;124138;-79
2023/07/05 11:03:32;;;;;;;;;;;23.00;61.80;;;23.53;35.53;98495.59;4986368;28;114619;-79
2023/07/05 11:06:00;;;;;;;;;;;23.00;62.10;;;23.60;36.11;98506.84;4972661;28;113819;-79
2023/07/05 11:08:27;;;;;;;;;;;23.10;62.90;;;23.64;35.97;98487.88;4985050;28;123247;-78
2023/07/05 11:10:56;;;;;;;;;;;23.20;62.90;;;23.69;35.57;98504.41;4986795;28;123839;-79
2023/07/05 11:13:24;;;;;;;;;;;23.20;62.00;;;23.73;35.27;98512.91;4984045;28;114397;-77
2023/07/05 11:15:50;;;;;;;;;;;23.30;61.70;;;23.73;35.35;98504.44;4977022;28;114224;-78
2023/07/05 11:18:19;;;;;;;;;;;23.30;61.80;;;23.76;35.70;98501.59;4969493;28;123968;-78
2023/07/05 11:20:59;;;;;;;;;;;23.30;62.10;;;23.81;35.75;98501.16;4983040;28;123977;-79
2023/07/05 11:23:41;;;;;;;;;;;23.30;62.10;;;23.84;36.02;98510.03;4985411;28;115062;-78
2023/07/05 11:26:08;;;;;;;;;;;23.40;62.50;;;23.87;35.48;98503.56;4986784;28;114295;-79
2023/07/05 11:28:39;;;;;;;;;;;23.40;61.60;;;23.90;35.28;98491.47;4980763;28;123997;-79
2023/07/05 11:31:08;;;;;;;;;;;23.50;61.50;;;23.95;34.74;98489.03;4976756;28;123710;-80
2023/07/05 11:33:38;;;;;;;;;;;23.50;60.20;;;24.03;34.04;98489.78;4969887;28;113784;-79
2023/07/05 11:36:28;;;;;;;;;;;23.50;59.40;;;24.02;33.78;98482.56;4987218;28;113903;-79